Elmer City, Washington
Current Conditions -  °F | °C
As of 8:53 AM on Friday 21 Nov 2014 (Local Time) from KOMK Reporting Station
Haze Haze  
Wind Chill: 32°   Ceiling: 1900
Heat Index: 32°   Visibility: 6mi
Dew Point: 26°   Wind: 3mph
Humidity: 79%   Direction: 200°SSW
Pressure: 29.9"   Gusts: NA
Location:  48°N, 118.95°W
Report Text: KOMK 211653Z AUTO 20003KT 6SM HZ OVC019 00/M03 A2990 RMK AO2 SLP139 T00001033
Loading
Personal Weather Stations






























Interactive Weather Map New forecast layout! Learn more

10-Day Weather Forecast

Advertisements
Track Severe Weather on mobile